createdAt,value
2019-04-21T00:00:16.698Z,1015.59
2019-04-21T00:01:12.668Z,1015.60
2019-04-21T00:02:18.773Z,1015.59
2019-04-21T00:03:19.366Z,1015.46
2019-04-21T00:04:24.859Z,1015.54
2019-04-21T00:05:49.862Z,1015.54
2019-04-21T00:06:31.585Z,1015.51
2019-04-21T00:07:31.648Z,1015.48
2019-04-21T00:09:34.667Z,1015.44
2019-04-21T00:10:36.441Z,1015.51
2019-04-21T00:11:37.805Z,1015.52
2019-04-21T00:12:31.056Z,1015.47
2019-04-21T00:13:27.704Z,1015.54
2019-04-21T00:14:24.929Z,1015.44
2019-04-21T00:15:20.554Z,1015.48
2019-04-21T00:16:14.111Z,1015.45
2019-04-21T00:17:15.635Z,1015.45
2019-04-21T00:18:12.277Z,1015.51
2019-04-21T00:19:17.299Z,1015.48
2019-04-21T00:20:20.369Z,1015.49
2019-04-21T00:21:22.271Z,1015.48
2019-04-21T00:22:24.713Z,1015.48
2019-04-21T00:23:29.634Z,1015.45
2019-04-21T00:24:28.877Z,1015.45
2019-04-21T00:25:26.470Z,1015.42
2019-04-21T00:26:27.872Z,1015.41
2019-04-21T00:27:28.543Z,1015.45
2019-04-21T00:28:39.583Z,1015.41
2019-04-21T00:29:35.406Z,1015.46
2019-04-21T00:30:34.109Z,1015.47
2019-04-21T00:31:32.251Z,1015.48
2019-04-21T00:32:25.770Z,1015.41
2019-04-21T00:33:17.566Z,1015.45
2019-04-21T00:34:11.155Z,1015.45
2019-04-21T00:35:16.910Z,1015.42
2019-04-21T00:36:16.912Z,1015.43
2019-04-21T00:37:20.677Z,1015.33
2019-04-21T00:38:32.463Z,1015.40
2019-04-21T00:39:36.425Z,1015.38
2019-04-21T00:40:39.815Z,1015.34
2019-04-21T00:41:33.833Z,1015.29
2019-04-21T00:42:30.373Z,1015.37
2019-04-21T00:43:28.427Z,1015.34
2019-04-21T00:44:21.486Z,1015.33
2019-04-21T00:45:24.942Z,1015.30
2019-04-21T00:46:28.007Z,1015.25
2019-04-21T00:47:30.654Z,1015.29
2019-04-21T00:48:29.965Z,1015.25
2019-04-21T00:49:23.262Z,1015.22
2019-04-21T00:50:31.418Z,1015.22
2019-04-21T00:51:39.743Z,1015.17
2019-04-21T00:52:46.176Z,1015.15
2019-04-21T00:53:37.107Z,1015.23
2019-04-21T00:54:33.109Z,1015.17
2019-04-21T00:56:35.345Z,1015.16
2019-04-21T00:57:38.863Z,1015.15
2019-04-21T00:58:33.261Z,1015.13
2019-04-21T00:59:34.990Z,1015.20
2019-04-21T01:00:34.997Z,1015.15
2019-04-21T01:01:34.223Z,1015.15
2019-04-21T01:02:29.721Z,1015.21
2019-04-21T01:03:32.350Z,1015.18
2019-04-21T01:04:30.485Z,1015.17
2019-04-21T01:05:38.547Z,1015.17
2019-04-21T01:06:34.088Z,1015.13
2019-04-21T01:07:32.007Z,1015.13
2019-04-21T01:08:32.213Z,1015.11
2019-04-21T01:09:29.069Z,1015.12
2019-04-21T01:10:20.965Z,1015.12
2019-04-21T01:11:40.233Z,1015.09
2019-04-21T01:12:33.113Z,1015.03
2019-04-21T01:13:34.496Z,1015.06
2019-04-21T01:14:35.846Z,1015.09
2019-04-21T01:15:37.337Z,1015.04
2019-04-21T01:16:34.485Z,1015.09
2019-04-21T01:17:30.843Z,1015.03
2019-04-21T01:18:32.494Z,1015.01
2019-04-21T01:19:25.145Z,1014.98
2019-04-21T01:20:16.831Z,1014.98
2019-04-21T01:21:14.324Z,1015.01
2019-04-21T01:22:08.658Z,1014.97
2019-04-21T01:23:08.622Z,1014.98
2019-04-21T01:24:15.917Z,1014.97
2019-04-21T01:25:19.281Z,1015.05
2019-04-21T01:26:26.319Z,1014.82
2019-04-21T01:27:21.410Z,1015.01
2019-04-21T01:28:27.475Z,1014.99
2019-04-21T01:29:29.001Z,1014.94
2019-04-21T01:30:29.679Z,1014.99
2019-04-21T01:31:22.937Z,1014.95
2019-04-21T01:32:29.272Z,1014.94
2019-04-21T01:33:36.119Z,1015.00
2019-04-21T01:34:29.112Z,1014.92
2019-04-21T01:35:25.421Z,1014.93
2019-04-21T01:36:24.176Z,1014.98
2019-04-21T01:37:32.951Z,1014.94
2019-04-21T01:38:34.337Z,1014.95
2019-04-21T01:39:34.493Z,1014.97
2019-04-21T01:40:38.112Z,1014.92
2019-04-21T01:41:35.542Z,1014.90
2019-04-21T01:42:25.595Z,1014.91
2019-04-21T01:43:27.572Z,1014.87
2019-04-21T01:44:36.098Z,1014.92
2019-04-21T01:45:26.484Z,1014.97
2019-04-21T01:46:28.398Z,1014.90
2019-04-21T01:47:24.848Z,1014.91
2019-04-21T01:48:24.680Z,1014.89
2019-04-21T01:49:21.987Z,1014.82
2019-04-21T01:50:27.446Z,1014.87
2019-04-21T01:51:20.937Z,1014.84
2019-04-21T01:53:30.654Z,1014.73
2019-04-21T01:54:31.713Z,1014.85
2019-04-21T01:55:30.815Z,1014.88
2019-04-21T01:56:25.329Z,1014.87
2019-04-21T01:57:22.618Z,1014.81
2019-04-21T01:58:19.408Z,1014.88
2019-04-21T01:59:20.467Z,1014.86
2019-04-21T02:00:18.988Z,1014.80
2019-04-21T02:01:28.463Z,1014.86
2019-04-21T02:02:29.292Z,1014.83
2019-04-21T02:04:37.206Z,1014.79
2019-04-21T02:05:32.931Z,1014.83
2019-04-21T02:06:27.582Z,1014.87
2019-04-21T02:07:27.392Z,1014.81
2019-04-21T02:08:28.790Z,1014.82
2019-04-21T02:09:27.388Z,1014.81
2019-04-21T02:10:34.237Z,1014.83
2019-04-21T02:11:31.256Z,1014.82
2019-04-21T02:12:30.213Z,1014.82
2019-04-21T02:13:23.209Z,1014.87
2019-04-21T02:14:31.136Z,1014.77
2019-04-21T02:15:31.227Z,1014.78
2019-04-21T02:16:28.264Z,1014.83
2019-04-21T02:17:40.776Z,1014.85
2019-04-21T02:18:31.614Z,1014.77
2019-04-21T02:19:23.598Z,1014.81
2019-04-21T02:20:18.045Z,1014.74
2019-04-21T02:21:21.714Z,1014.76
2019-04-21T02:22:35.286Z,1014.72
2019-04-21T02:23:34.388Z,1014.71
2019-04-21T02:24:39.971Z,1014.70
2019-04-21T02:25:25.803Z,1014.72
2019-04-21T02:26:32.415Z,1014.71
2019-04-21T02:27:31.735Z,1014.67
2019-04-21T02:28:36.884Z,1014.61
2019-04-21T02:29:37.654Z,1014.63
2019-04-21T02:30:45.486Z,1014.62
2019-04-21T02:31:40.466Z,1014.64
2019-04-21T02:33:48.977Z,1014.51
2019-04-21T02:34:40.931Z,1014.61
2019-04-21T02:38:47.739Z,1014.61
2019-04-21T02:39:41.128Z,1014.56
2019-04-21T02:40:38.537Z,1014.54
2019-04-21T02:41:43.731Z,1014.54
2019-04-21T02:42:38.931Z,1014.49
2019-04-21T02:43:38.854Z,1014.43
2019-04-21T02:44:42.880Z,1014.51
2019-04-21T02:48:39.275Z,1014.45
2019-04-21T02:49:45.231Z,1014.48
2019-04-21T02:54:48.058Z,1014.47
2019-04-21T02:55:38.757Z,1014.39
2019-04-21T02:56:48.215Z,1014.44
2019-04-21T02:58:48.017Z,1014.36
2019-04-21T02:59:42.259Z,1014.37
2019-04-21T03:00:36.525Z,1014.42
2019-04-21T03:01:41.343Z,1014.39
2019-04-21T03:02:40.878Z,1014.37
2019-04-21T03:03:36.487Z,1014.33
2019-04-21T03:04:46.675Z,1014.33
2019-04-21T03:06:59.833Z,1014.27
2019-04-21T03:07:34.795Z,1014.27
2019-04-21T03:08:47.477Z,1014.21
2019-04-21T03:09:46.161Z,1014.20
2019-04-21T03:11:28.569Z,1014.26
2019-04-21T03:12:28.888Z,1014.24
2019-04-21T03:13:44.607Z,1014.18
2019-04-21T03:16:31.564Z,1014.22
2019-04-21T03:18:46.045Z,1014.17
2019-04-21T03:19:45.173Z,1014.19
2019-04-21T03:20:56.833Z,1014.16
2019-04-21T03:22:32.713Z,1014.09
2019-04-21T03:23:52.297Z,1014.14
2019-04-21T03:25:04.488Z,1014.17
2019-04-21T03:25:41.745Z,1014.13
2019-04-21T03:26:36.342Z,1014.14
2019-04-21T03:28:37.843Z,1014.14
2019-04-21T03:35:18.447Z,1014.02
2019-04-21T03:36:31.554Z,1014.09
2019-04-21T03:36:49.835Z,1014.08
2019-04-21T03:38:37.628Z,1014.10
2019-04-21T03:39:37.512Z,1014.07
2019-04-21T03:41:41.806Z,1014.11
2019-04-21T03:44:37.274Z,1014.05
2019-04-21T03:47:50.192Z,1013.95
2019-04-21T03:52:39.345Z,1014.00
2019-04-21T03:53:31.493Z,1014.00
2019-04-21T03:54:37.174Z,1014.00
2019-04-21T03:56:53.522Z,1013.98
2019-04-21T03:57:46.617Z,1014.03
2019-04-21T03:58:46.886Z,1014.04
2019-04-21T03:59:24.633Z,1014.05
2019-04-21T04:01:36.663Z,1013.99
2019-04-21T04:02:45.129Z,1013.94
2019-04-21T04:05:49.503Z,1014.01
2019-04-21T04:06:38.397Z,1013.87
2019-04-21T04:07:44.014Z,1014.00
2019-04-21T04:09:37.566Z,1014.01
2019-04-21T04:10:34.797Z,1014.02
2019-04-21T04:11:39.816Z,1014.00
2019-04-21T04:12:35.085Z,1013.99
2019-04-21T04:14:42.464Z,1013.95
2019-04-21T04:15:38.233Z,1014.00
2019-04-21T04:19:39.974Z,1013.92
2019-04-21T04:24:50.195Z,1013.99
2019-04-21T04:26:42.934Z,1013.96
2019-04-21T04:27:47.276Z,1013.97
2019-04-21T04:30:40.968Z,1013.91
2019-04-21T04:32:42.480Z,1013.90
2019-04-21T04:35:48.918Z,1013.86
2019-04-21T04:40:30.746Z,1013.82
2019-04-21T04:41:41.655Z,1013.84
2019-04-21T04:45:40.626Z,1013.85
2019-04-21T04:46:33.360Z,1013.82
2019-04-21T04:48:28.421Z,1013.84
2019-04-21T04:50:43.379Z,1013.81
2019-04-21T04:51:43.836Z,1013.82
2019-04-21T04:53:40.910Z,1013.68
2019-04-21T04:54:47.514Z,1013.76
2019-04-21T04:55:33.685Z,1013.78
2019-04-21T04:56:31.023Z,1013.80
2019-04-21T04:57:53.236Z,1013.75
2019-04-21T04:58:54.605Z,1013.84
2019-04-21T05:00:34.914Z,1013.84
2019-04-21T05:01:57.628Z,1013.76
2019-04-21T05:02:35.557Z,1013.81
2019-04-21T05:03:45.190Z,1013.84
2019-04-21T05:04:37.550Z,1013.67
2019-04-21T05:05:48.817Z,1013.80
2019-04-21T05:07:34.073Z,1013.72
2019-04-21T05:08:42.276Z,1013.73
2019-04-21T05:09:33.604Z,1013.75
2019-04-21T05:10:38.491Z,1013.62
2019-04-21T05:13:37.538Z,1013.77
2019-04-21T05:14:33.761Z,1013.70
2019-04-21T05:15:42.502Z,1013.76
2019-04-21T05:16:41.012Z,1013.80
2019-04-21T05:18:36.746Z,1013.71
2019-04-21T05:19:30.543Z,1013.70
2019-04-21T05:23:28.778Z,1013.79
2019-04-21T05:24:20.908Z,1013.74
2019-04-21T05:25:19.548Z,1013.81
2019-04-21T05:26:14.962Z,1013.83
2019-04-21T05:27:16.427Z,1013.78
2019-04-21T05:28:12.526Z,1013.79
2019-04-21T05:29:08.992Z,1013.81
2019-04-21T05:30:30.670Z,1013.83
2019-04-21T05:31:25.103Z,1013.83
2019-04-21T05:32:17.206Z,1013.85
2019-04-21T05:33:24.459Z,1013.86
2019-04-21T05:34:25.171Z,1013.83
2019-04-21T05:35:20.117Z,1013.85
2019-04-21T05:36:18.754Z,1013.83
2019-04-21T05:37:22.009Z,1013.82
2019-04-21T05:38:17.462Z,1013.85
2019-04-21T05:39:14.662Z,1013.85
2019-04-21T05:40:15.741Z,1013.87
2019-04-21T05:41:11.060Z,1013.85
2019-04-21T05:42:08.852Z,1013.88
2019-04-21T05:43:21.388Z,1013.82
2019-04-21T05:44:27.999Z,1013.93
2019-04-21T05:45:25.436Z,1013.89
2019-04-21T05:46:18.446Z,1013.85
2019-04-21T05:47:29.916Z,1013.94
2019-04-21T05:48:22.855Z,1013.93
2019-04-21T05:49:14.090Z,1013.93
2019-04-21T05:50:20.501Z,1013.98
2019-04-21T05:51:16.140Z,1013.96
2019-04-21T05:52:14.583Z,1013.95
2019-04-21T05:53:25.304Z,1013.93
2019-04-21T05:54:29.652Z,1013.89
2019-04-21T05:55:24.464Z,1013.89
2019-04-21T05:56:22.964Z,1013.88
2019-04-21T05:57:18.856Z,1013.92
2019-04-21T05:58:19.375Z,1013.90
2019-04-21T05:59:20.087Z,1013.89
2019-04-21T06:00:32.125Z,1013.89
2019-04-21T06:01:31.481Z,1013.89
2019-04-21T06:03:23.522Z,1013.89
2019-04-21T06:04:38.818Z,1013.86
2019-04-21T06:06:26.160Z,1013.84
2019-04-21T06:08:17.896Z,1013.88
2019-04-21T06:09:21.247Z,1013.88
2019-04-21T06:10:22.226Z,1013.85
2019-04-21T06:12:23.808Z,1013.83
2019-04-21T06:13:27.922Z,1013.83
2019-04-21T06:14:25.157Z,1013.85
2019-04-21T06:15:26.565Z,1013.85
2019-04-21T06:16:25.421Z,1013.75
2019-04-21T06:17:25.334Z,1013.75
2019-04-21T06:18:30.187Z,1013.81
2019-04-21T06:19:22.331Z,1013.77
2019-04-21T06:20:21.285Z,1013.82
2019-04-21T06:21:16.583Z,1013.84
2019-04-21T06:22:20.938Z,1013.77
2019-04-21T06:23:25.119Z,1013.77
2019-04-21T06:24:26.992Z,1013.75
2019-04-21T06:25:44.689Z,1013.81
2019-04-21T06:27:28.013Z,1013.84
2019-04-21T06:28:22.389Z,1013.78
2019-04-21T06:29:24.070Z,1013.76
2019-04-21T06:30:20.718Z,1013.79
2019-04-21T06:31:33.739Z,1013.79
2019-04-21T06:32:30.481Z,1013.80
2019-04-21T06:33:20.256Z,1013.76
2019-04-21T06:34:23.476Z,1013.79
2019-04-21T06:38:28.594Z,1013.71
2019-04-21T06:39:25.583Z,1013.75
2019-04-21T06:40:30.812Z,1013.73
2019-04-21T06:41:28.898Z,1013.71
2019-04-21T06:42:21.184Z,1013.72
2019-04-21T06:44:14.934Z,1013.74
2019-04-21T06:45:20.491Z,1013.74
2019-04-21T06:46:25.924Z,1013.72
2019-04-21T06:47:29.998Z,1013.75
2019-04-21T06:48:24.648Z,1013.73
2019-04-21T06:49:17.395Z,1013.69
2019-04-21T06:50:24.386Z,1013.72
2019-04-21T06:51:22.537Z,1013.63
2019-04-21T06:52:43.500Z,1013.66
2019-04-21T06:53:20.481Z,1013.72
2019-04-21T06:54:22.001Z,1013.77
2019-04-21T06:55:19.899Z,1013.74
2019-04-21T06:56:28.540Z,1013.78
2019-04-21T06:57:21.801Z,1013.80
2019-04-21T06:58:18.395Z,1013.76
2019-04-21T06:59:14.536Z,1013.68
2019-04-21T07:00:18.489Z,1013.70
2019-04-21T07:01:26.519Z,1013.66
2019-04-21T07:03:19.393Z,1013.71
2019-04-21T07:05:21.774Z,1013.72
2019-04-21T07:06:24.597Z,1013.70
2019-04-21T07:07:17.223Z,1013.68
2019-04-21T07:08:38.892Z,1013.68
2019-04-21T07:09:30.095Z,1013.67
2019-04-21T07:10:22.528Z,1013.70
2019-04-21T07:11:14.995Z,1013.63
2019-04-21T07:12:18.649Z,1013.68
2019-04-21T07:13:15.389Z,1013.70
2019-04-21T07:15:21.811Z,1013.69
2019-04-21T07:16:19.216Z,1013.67
2019-04-21T07:17:24.240Z,1013.64
2019-04-21T07:18:19.192Z,1013.64
2019-04-21T07:19:35.092Z,1013.70
2019-04-21T07:20:18.546Z,1013.69
2019-04-21T07:21:25.513Z,1013.63
2019-04-21T07:22:21.452Z,1013.70
2019-04-21T07:23:20.423Z,1013.72
2019-04-21T07:24:21.722Z,1013.64
2019-04-21T07:25:22.567Z,1013.64
2019-04-21T07:26:22.258Z,1013.68
2019-04-21T07:27:16.288Z,1013.69
2019-04-21T07:28:17.366Z,1013.59
2019-04-21T07:29:21.989Z,1013.61
2019-04-21T07:30:20.861Z,1013.56
2019-04-21T07:31:20.560Z,1013.57
2019-04-21T07:32:19.141Z,1013.65
2019-04-21T07:33:43.735Z,1013.58
2019-04-21T07:34:22.666Z,1013.58
2019-04-21T07:35:31.802Z,1013.60
2019-04-21T07:36:28.976Z,1013.61
2019-04-21T07:37:12.516Z,1013.57
2019-04-21T07:38:19.557Z,1013.53
2019-04-21T07:39:12.034Z,1013.54
2019-04-21T07:40:16.095Z,1013.56
2019-04-21T07:41:11.319Z,1013.54
2019-04-21T07:42:13.471Z,1013.53
2019-04-21T07:43:12.104Z,1013.46
2019-04-21T07:44:10.313Z,1013.50
2019-04-21T07:45:12.990Z,1013.51
2019-04-21T07:46:10.169Z,1013.45
2019-04-21T07:47:15.792Z,1013.46
2019-04-21T07:48:14.420Z,1013.51
2019-04-21T07:49:12.449Z,1013.47
2019-04-21T07:50:14.886Z,1013.58
2019-04-21T07:51:20.955Z,1013.51
2019-04-21T07:52:18.192Z,1013.49
2019-04-21T07:53:25.892Z,1013.54
2019-04-21T07:54:25.113Z,1013.49
2019-04-21T07:56:00.781Z,1013.47
2019-04-21T07:57:15.536Z,1013.43
2019-04-21T07:58:14.980Z,1013.45
2019-04-21T07:59:23.907Z,1013.46
2019-04-21T08:01:22.694Z,1013.45
2019-04-21T08:02:18.616Z,1013.42
2019-04-21T08:03:14.130Z,1013.48
2019-04-21T08:04:24.457Z,1013.37
2019-04-21T08:06:20.485Z,1013.37
2019-04-21T08:07:21.623Z,1013.40
2019-04-21T08:08:12.464Z,1013.37
2019-04-21T08:09:11.908Z,1013.35
2019-04-21T08:10:12.017Z,1013.36
2019-04-21T08:11:09.609Z,1013.37
2019-04-21T08:12:09.833Z,1013.35
2019-04-21T08:13:27.353Z,1013.33
2019-04-21T08:14:17.723Z,1013.37
2019-04-21T08:15:23.151Z,1013.35
2019-04-21T08:16:20.387Z,1013.38
2019-04-21T08:17:16.404Z,1013.37
2019-04-21T08:18:11.777Z,1013.32
2019-04-21T08:19:15.662Z,1013.28
2019-04-21T08:20:13.794Z,1013.33
2019-04-21T08:21:12.219Z,1013.28
2019-04-21T08:22:15.709Z,1013.32
2019-04-21T08:24:14.951Z,1013.30
2019-04-21T08:25:14.908Z,1013.24
2019-04-21T08:26:34.514Z,1013.24
2019-04-21T08:27:17.741Z,1013.20
2019-04-21T08:28:08.973Z,1013.22
2019-04-21T08:29:20.302Z,1013.22
2019-04-21T08:30:11.816Z,1013.23
2019-04-21T08:31:13.977Z,1013.16
2019-04-21T08:32:21.414Z,1013.14
2019-04-21T08:34:13.978Z,1013.17
2019-04-21T08:35:34.582Z,1013.08
2019-04-21T08:37:15.046Z,1013.05
2019-04-21T08:38:13.817Z,1013.07
2019-04-21T08:39:14.992Z,1013.07
2019-04-21T08:40:17.731Z,1013.09
2019-04-21T08:41:17.142Z,1013.04
2019-04-21T08:42:10.390Z,1013.04
2019-04-21T08:43:21.199Z,1013.08
2019-04-21T08:44:10.698Z,1012.98
2019-04-21T08:45:14.935Z,1013.09
2019-04-21T08:47:15.506Z,1013.09
2019-04-21T08:48:16.977Z,1013.12
2019-04-21T08:49:16.743Z,1013.09
2019-04-21T08:50:14.915Z,1013.03
2019-04-21T08:52:21.556Z,1013.03
2019-04-21T08:53:14.646Z,1012.98
2019-04-21T08:54:15.175Z,1013.04
2019-04-21T08:55:22.521Z,1013.01
2019-04-21T08:56:16.469Z,1012.94
2019-04-21T08:57:15.246Z,1012.96
2019-04-21T08:59:19.015Z,1012.91
2019-04-21T09:01:20.514Z,1012.87
2019-04-21T09:02:16.784Z,1012.86
2019-04-21T09:03:14.016Z,1012.89
2019-04-21T09:04:13.403Z,1012.88
2019-04-21T09:05:12.606Z,1012.88
2019-04-21T09:06:17.343Z,1012.86
2019-04-21T09:07:12.903Z,1012.79
2019-04-21T09:08:15.299Z,1012.82
2019-04-21T09:10:09.426Z,1012.87
2019-04-21T09:11:11.461Z,1012.80
2019-04-21T09:12:10.907Z,1012.79
2019-04-21T09:13:14.909Z,1012.81
2019-04-21T09:14:13.110Z,1012.80
2019-04-21T09:15:13.850Z,1012.77
2019-04-21T09:16:09.879Z,1012.81
2019-04-21T09:17:06.581Z,1012.72
2019-04-21T09:18:10.145Z,1012.72
2019-04-21T09:19:11.751Z,1012.72
2019-04-21T09:20:22.622Z,1012.75
2019-04-21T09:21:15.988Z,1012.76
2019-04-21T09:22:14.198Z,1012.72
2019-04-21T09:23:13.361Z,1012.73
2019-04-21T09:24:14.806Z,1012.72
2019-04-21T09:25:16.287Z,1012.76
2019-04-21T09:26:14.421Z,1012.69
2019-04-21T09:27:09.715Z,1012.61
2019-04-21T09:28:11.168Z,1012.63
2019-04-21T09:29:04.391Z,1012.62
2019-04-21T09:29:57.706Z,1012.64
2019-04-21T09:30:57.767Z,1012.56
2019-04-21T09:31:55.850Z,1012.63
2019-04-21T09:32:56.140Z,1012.63
2019-04-21T09:33:56.954Z,1012.57
2019-04-21T09:34:52.822Z,1012.59
2019-04-21T09:35:58.873Z,1012.60
2019-04-21T09:37:09.924Z,1012.57
2019-04-21T09:38:00.576Z,1012.56
2019-04-21T09:39:00.034Z,1012.57
2019-04-21T09:39:56.980Z,1012.50
2019-04-21T09:40:54.435Z,1012.55
2019-04-21T09:41:54.529Z,1012.55
2019-04-21T09:42:59.491Z,1012.52
2019-04-21T09:43:55.700Z,1012.54
2019-04-21T09:44:58.015Z,1012.53
2019-04-21T09:45:52.523Z,1012.49
2019-04-21T09:46:56.632Z,1012.46
2019-04-21T09:48:01.106Z,1012.45
2019-04-21T09:48:59.017Z,1012.46
2019-04-21T09:49:52.435Z,1012.39
2019-04-21T09:50:52.528Z,1012.41
2019-04-21T09:51:52.963Z,1012.41
2019-04-21T09:52:58.268Z,1012.36
2019-04-21T09:54:01.182Z,1012.32
2019-04-21T09:55:03.941Z,1012.33
2019-04-21T09:55:59.346Z,1012.29
2019-04-21T09:56:58.561Z,1012.38
2019-04-21T09:57:57.021Z,1012.31
2019-04-21T09:59:03.809Z,1012.33
2019-04-21T10:00:00.910Z,1012.29
2019-04-21T10:01:03.262Z,1012.26
2019-04-21T10:02:04.827Z,1012.23
2019-04-21T10:03:00.920Z,1012.27
2019-04-21T10:03:56.427Z,1012.23
2019-04-21T10:04:52.744Z,1012.22
2019-04-21T10:05:52.119Z,1012.13
2019-04-21T10:06:52.067Z,1012.18
2019-04-21T10:07:53.163Z,1012.13
2019-04-21T10:08:58.552Z,1012.12
2019-04-21T10:09:52.355Z,1012.08
2019-04-21T10:10:51.987Z,1012.04
2019-04-21T10:11:52.716Z,1012.04
2019-04-21T10:12:52.032Z,1012.10
2019-04-21T10:13:52.978Z,1012.04
2019-04-21T10:14:51.899Z,1012.04
2019-04-21T10:15:52.029Z,1011.98
2019-04-21T10:16:51.849Z,1012.01
2019-04-21T10:17:52.055Z,1012.04
2019-04-21T10:18:52.409Z,1011.93
2019-04-21T10:19:52.889Z,1011.88
2019-04-21T10:20:51.780Z,1011.91
2019-04-21T10:21:52.081Z,1011.83
2019-04-21T10:22:53.008Z,1011.89
2019-04-21T10:23:52.229Z,1011.83
2019-04-21T10:24:52.185Z,1011.89
2019-04-21T10:25:52.560Z,1011.86
2019-04-21T10:26:51.636Z,1011.87
2019-04-21T10:27:52.768Z,1011.85
2019-04-21T10:28:52.941Z,1011.75
2019-04-21T10:29:52.267Z,1011.81
2019-04-21T10:30:52.830Z,1011.81
2019-04-21T10:31:52.434Z,1011.73
2019-04-21T10:32:52.435Z,1011.76
2019-04-21T10:33:52.586Z,1011.74
2019-04-21T10:34:52.755Z,1011.79
2019-04-21T10:35:51.448Z,1011.77
2019-04-21T10:36:51.426Z,1011.75
2019-04-21T10:38:03.471Z,1011.77
2019-04-21T10:38:53.564Z,1011.79
2019-04-21T10:39:51.599Z,1011.73
2019-04-21T10:40:51.724Z,1011.71
2019-04-21T10:41:51.322Z,1011.73
2019-04-21T10:42:52.286Z,1011.70
2019-04-21T10:43:51.411Z,1011.69
2019-04-21T10:44:52.625Z,1011.65
2019-04-21T10:45:51.238Z,1011.60
2019-04-21T10:46:52.574Z,1011.66
2019-04-21T10:47:52.684Z,1011.61
2019-04-21T10:48:51.173Z,1011.58
2019-04-21T10:49:51.172Z,1011.57
2019-04-21T10:50:51.135Z,1011.62
2019-04-21T10:51:51.112Z,1011.51
2019-04-21T10:52:51.110Z,1011.55
2019-04-21T10:53:53.891Z,1011.50
2019-04-21T10:55:11.273Z,1011.52
2019-04-21T10:56:04.154Z,1011.49
2019-04-21T10:56:52.472Z,1011.48
2019-04-21T10:57:50.988Z,1011.43
2019-04-21T10:58:52.102Z,1011.42
2019-04-21T10:59:53.851Z,1011.42
2019-04-21T11:00:51.595Z,1011.38
2019-04-21T11:01:50.933Z,1011.39
2019-04-21T11:02:50.886Z,1011.38
2019-04-21T11:03:50.885Z,1011.31
2019-04-21T11:04:51.094Z,1011.36
2019-04-21T11:05:50.827Z,1011.28
2019-04-21T11:06:50.828Z,1011.26
2019-04-21T11:08:01.394Z,1011.29
2019-04-21T11:08:54.188Z,1011.25
2019-04-21T11:09:51.875Z,1011.27
2019-04-21T11:10:51.876Z,1011.23
2019-04-21T11:11:52.078Z,1011.24
2019-04-21T11:12:50.888Z,1011.22
2019-04-21T11:13:50.756Z,1011.17
2019-04-21T11:14:51.461Z,1011.26
2019-04-21T11:15:50.879Z,1011.27
2019-04-21T11:16:52.617Z,1011.28
2019-04-21T11:17:50.678Z,1011.28
2019-04-21T11:18:51.634Z,1011.19
2019-04-21T11:19:50.696Z,1011.24
2019-04-21T11:20:51.168Z,1011.20
2019-04-21T11:21:50.518Z,1011.21
2019-04-21T11:22:51.394Z,1011.27
2019-04-21T11:23:50.471Z,1011.19
2019-04-21T11:24:51.117Z,1011.16
2019-04-21T11:25:51.632Z,1011.16
2019-04-21T11:26:51.870Z,1011.07
2019-04-21T11:27:51.176Z,1011.12
2019-04-21T11:28:50.597Z,1011.02
2019-04-21T11:29:51.596Z,1011.10
2019-04-21T11:30:50.994Z,1011.04
2019-04-21T11:31:51.340Z,1011.04
2019-04-21T11:32:51.109Z,1010.99
2019-04-21T11:33:51.220Z,1011.00
2019-04-21T11:34:51.407Z,1010.98
2019-04-21T11:35:51.233Z,1010.95
2019-04-21T11:36:50.279Z,1011.06
2019-04-21T11:37:50.333Z,1010.99
2019-04-21T11:39:06.097Z,1011.04
2019-04-21T11:39:57.310Z,1011.04
2019-04-21T11:40:50.143Z,1011.04
2019-04-21T11:41:50.114Z,1011.04
2019-04-21T11:42:51.448Z,1010.97
2019-04-21T11:43:50.836Z,1010.90
2019-04-21T11:44:51.507Z,1010.90
2019-04-21T11:45:50.539Z,1010.86
2019-04-21T11:46:50.136Z,1010.81
2019-04-21T11:47:50.214Z,1010.83
2019-04-21T11:48:50.443Z,1010.84
2019-04-21T11:49:49.970Z,1010.86
2019-04-21T11:50:50.952Z,1010.79
2019-04-21T11:51:51.058Z,1010.75
2019-04-21T11:52:49.909Z,1010.77
2019-04-21T11:53:50.748Z,1010.77
2019-04-21T11:54:50.934Z,1010.70
2019-04-21T11:55:51.818Z,1010.71
2019-04-21T11:56:50.664Z,1010.67
2019-04-21T11:57:51.351Z,1010.70
2019-04-21T11:58:50.001Z,1010.70
2019-04-21T11:59:49.778Z,1010.64
2019-04-21T12:00:50.801Z,1010.65
2019-04-21T12:01:49.857Z,1010.64
2019-04-21T12:02:49.739Z,1010.65
2019-04-21T12:03:49.729Z,1010.64
2019-04-21T12:04:49.677Z,1010.61
2019-04-21T12:05:51.097Z,1010.57
2019-04-21T12:06:51.155Z,1010.55
2019-04-21T12:07:49.626Z,1010.53
2019-04-21T12:08:52.607Z,1010.54
2019-04-21T12:09:49.592Z,1010.53
2019-04-21T12:10:49.598Z,1010.49
2019-04-21T12:11:49.570Z,1010.52
2019-04-21T12:12:50.881Z,1010.45
2019-04-21T12:13:49.929Z,1010.38
2019-04-21T12:14:50.272Z,1010.40
2019-04-21T12:15:49.471Z,1010.32
2019-04-21T12:16:50.804Z,1010.42
2019-04-21T12:17:50.125Z,1010.37
2019-04-21T12:18:49.415Z,1010.38
2019-04-21T12:19:50.678Z,1010.37
2019-04-21T12:20:49.378Z,1010.37
2019-04-21T12:22:04.186Z,1010.39
2019-04-21T12:22:49.469Z,1010.37
2019-04-21T12:23:50.291Z,1010.36
2019-04-21T12:24:49.295Z,1010.36
2019-04-21T12:25:49.491Z,1010.37
2019-04-21T12:26:49.743Z,1010.34
2019-04-21T12:27:49.948Z,1010.31
2019-04-21T12:28:50.119Z,1010.33
2019-04-21T12:29:49.374Z,1010.36
2019-04-21T12:30:49.662Z,1010.34
2019-04-21T12:31:49.685Z,1010.32
2019-04-21T12:32:49.173Z,1010.29
2019-04-21T12:33:49.803Z,1010.29
2019-04-21T12:34:51.720Z,1010.30
2019-04-21T12:35:49.097Z,1010.27
2019-04-21T12:36:49.076Z,1010.23
2019-04-21T12:37:49.068Z,1010.28
2019-04-21T12:38:55.802Z,1010.23
2019-04-21T12:39:50.463Z,1010.23
2019-04-21T12:40:48.994Z,1010.22
2019-04-21T12:41:49.044Z,1010.23
2019-04-21T12:42:48.962Z,1010.13
2019-04-21T12:43:48.944Z,1010.14
2019-04-21T12:44:49.498Z,1010.12
2019-04-21T12:45:49.486Z,1010.09
2019-04-21T12:46:49.795Z,1010.11
2019-04-21T12:47:50.670Z,1010.09
2019-04-21T12:48:49.684Z,1010.05
2019-04-21T12:49:49.837Z,1010.02
2019-04-21T12:50:49.929Z,1009.98
2019-04-21T12:51:48.787Z,1009.95
2019-04-21T12:52:49.622Z,1009.93
2019-04-21T12:53:49.861Z,1009.86
2019-04-21T12:54:48.728Z,1009.87
2019-04-21T12:55:49.916Z,1009.81
2019-04-21T12:56:49.572Z,1009.80
2019-04-21T12:57:49.551Z,1009.76
2019-04-21T12:58:49.063Z,1009.78
2019-04-21T12:59:48.776Z,1009.72
2019-04-21T13:00:49.599Z,1009.74
2019-04-21T13:01:48.682Z,1009.66
2019-04-21T13:02:49.751Z,1009.69
2019-04-21T13:03:49.938Z,1009.65
2019-04-21T13:04:49.743Z,1009.64
2019-04-21T13:05:49.567Z,1009.55
2019-04-21T13:06:49.775Z,1009.58
2019-04-21T13:07:49.176Z,1009.51
2019-04-21T13:08:55.618Z,1009.43
2019-04-21T13:09:48.536Z,1009.41
2019-04-21T13:10:48.576Z,1009.45
2019-04-21T13:11:49.170Z,1009.43
2019-04-21T13:12:48.369Z,1009.47
2019-04-21T13:13:48.350Z,1009.46
2019-04-21T13:14:49.545Z,1009.39
2019-04-21T13:15:49.412Z,1009.40
2019-04-21T13:16:49.583Z,1009.36
2019-04-21T13:17:48.278Z,1009.38
2019-04-21T13:18:49.236Z,1009.39
2019-04-21T13:19:49.412Z,1009.36
2019-04-21T13:20:48.522Z,1009.33
2019-04-21T13:21:48.208Z,1009.29
2019-04-21T13:22:48.255Z,1009.31
2019-04-21T13:23:49.135Z,1009.28
2019-04-21T13:24:49.545Z,1009.27
2019-04-21T13:25:48.112Z,1009.24
2019-04-21T13:26:53.613Z,1009.22
2019-04-21T13:27:49.231Z,1009.26
2019-04-21T13:28:48.135Z,1009.24
2019-04-21T13:29:48.274Z,1009.19
2019-04-21T13:30:48.591Z,1009.16
2019-04-21T13:31:48.250Z,1009.12
2019-04-21T13:32:49.259Z,1009.10
2019-04-21T13:33:48.147Z,1009.03
2019-04-21T13:34:47.935Z,1009.09
2019-04-21T13:35:48.864Z,1009.07
2019-04-21T13:36:47.892Z,1009.08
2019-04-21T13:37:50.499Z,1009.07
2019-04-21T13:39:23.206Z,1009.00
2019-04-21T13:40:09.557Z,1009.05
2019-04-21T13:41:03.761Z,1008.98
2019-04-21T13:42:00.266Z,1008.99
2019-04-21T13:42:52.270Z,1008.88